Time;durP1;ratioP1;P1;durP2;ratioP2;P2;SDS_P1;SDS_P2;PMS_P1;PMS_P2;Temp;Humidity;BMP_temperature;BMP_pressure;BME280_temperature;BME280_humidity;BME280_pressure;Samples;Min_cycle;Max_cycle;Signal;HPM_P1;HPM_P2
2022/11/11 00:02:05;;;;;;;0.70;0.70;;;;;;;;;;5076413;28;20190;-78
2022/11/11 00:04:31;;;;;;;0.90;0.90;;;;;;;;;;5076179;28;20266;-77
2022/11/11 00:06:57;;;;;;;0.80;0.80;;;;;;;;;;5078387;28;20174;-78
2022/11/11 00:09:23;;;;;;;0.80;0.80;;;;;;;;;;5077744;28;20194;-78
2022/11/11 00:11:49;;;;;;;0.70;0.70;;;;;;;;;;5078874;28;20213;-78
2022/11/11 00:14:15;;;;;;;0.80;0.80;;;;;;;;;;5069101;28;20194;-78
2022/11/11 00:25:07;;;;;;;0.90;0.90;;;;;;;;;;5065208;28;20232;-78
2022/11/11 00:27:33;;;;;;;0.80;0.80;;;;;;;;;;5069088;28;20178;-78
2022/11/11 00:29:59;;;;;;;0.80;0.80;;;;;;;;;;5060371;28;20209;-78
2022/11/11 00:32:30;;;;;;;0.73;0.73;;;;;;;;;;5059039;28;20222;-78
2022/11/11 00:37:42;;;;;;;0.80;0.80;;;;;;;;;;5069548;28;20190;-78
2022/11/11 00:40:09;;;;;;;0.80;0.80;;;;;;;;;;5056230;28;20208;-78
2022/11/11 00:42:35;;;;;;;0.80;0.80;;;;;;;;;;5057692;28;20203;-77
2022/11/11 00:45:01;;;;;;;0.90;0.90;;;;;;;;;;5070760;28;20240;-77
2022/11/11 00:52:57;;;;;;;0.80;0.80;;;;;;;;;;5057251;28;20197;-78
2022/11/11 00:55:23;;;;;;;0.80;0.80;;;;;;;;;;5055505;28;20946;-78
2022/11/11 00:57:49;;;;;;;0.80;0.80;;;;;;;;;;5055482;28;20269;-78
2022/11/11 01:00:15;;;;;;;0.90;0.90;;;;;;;;;;5067339;28;20172;-78
2022/11/11 01:02:41;;;;;;;1.00;1.00;;;;;;;;;;5057672;28;20188;-78
2022/11/11 01:05:07;;;;;;;1.10;1.03;;;;;;;;;;5068285;28;20175;-77
2022/11/11 01:07:33;;;;;;;1.10;1.10;;;;;;;;;;5062572;28;20190;-78
2022/11/11 01:09:59;;;;;;;0.90;0.90;;;;;;;;;;5062479;28;20245;-78
2022/11/11 01:12:25;;;;;;;1.10;1.10;;;;;;;;;;5055773;28;20195;-78
2022/11/11 01:14:52;;;;;;;1.17;1.17;;;;;;;;;;5065657;28;20182;-79
2022/11/11 01:17:18;;;;;;;1.40;1.30;;;;;;;;;;5074401;28;20194;-79
2022/11/11 01:19:44;;;;;;;1.10;1.10;;;;;;;;;;5057978;28;20192;-79
2022/11/11 01:22:10;;;;;;;1.10;1.10;;;;;;;;;;5063121;28;20195;-79
2022/11/11 01:24:37;;;;;;;1.00;1.00;;;;;;;;;;5074078;28;20205;-79
2022/11/11 01:27:03;;;;;;;1.00;1.00;;;;;;;;;;5074193;28;20178;-78
2022/11/11 01:29:29;;;;;;;0.90;0.90;;;;;;;;;;5068744;28;20182;-78
2022/11/11 01:31:55;;;;;;;0.90;0.90;;;;;;;;;;5072817;28;20199;-79
2022/11/11 01:34:21;;;;;;;0.90;0.90;;;;;;;;;;5055072;28;20179;-78
2022/11/11 01:36:47;;;;;;;0.90;0.90;;;;;;;;;;5058109;28;20167;-79
2022/11/11 01:39:13;;;;;;;0.80;0.80;;;;;;;;;;5056054;28;20214;-78
2022/11/11 01:41:39;;;;;;;0.83;0.83;;;;;;;;;;5068744;28;20199;-78
2022/11/11 01:44:11;;;;;;;0.80;0.80;;;;;;;;;;5071654;28;20171;-78
2022/11/11 01:46:45;;;;;;;0.90;0.90;;;;;;;;;;5061321;28;20198;-78
2022/11/11 01:49:23;;;;;;;0.80;0.80;;;;;;;;;;5071885;28;20174;-79
2022/11/11 01:51:55;;;;;;;0.90;0.90;;;;;;;;;;5065255;28;20209;-77
2022/11/11 01:54:26;;;;;;;0.90;0.90;;;;;;;;;;5057094;28;20210;-78
2022/11/11 01:56:56;;;;;;;0.80;0.80;;;;;;;;;;5065296;28;20186;-78
2022/11/11 01:59:22;;;;;;;0.80;0.80;;;;;;;;;;5063907;28;20674;-76
2022/11/11 02:01:48;;;;;;;0.90;0.90;;;;;;;;;;5055386;28;20226;-78
2022/11/11 02:07:02;;;;;;;0.90;0.90;;;;;;;;;;5056026;28;20236;-78
2022/11/11 02:09:29;;;;;;;0.93;0.93;;;;;;;;;;5056372;28;20194;-78
2022/11/11 02:14:43;;;;;;;0.97;0.97;;;;;;;;;;5055044;28;20274;-77
2022/11/11 02:17:12;;;;;;;1.00;1.00;;;;;;;;;;5074104;28;20588;-78
2022/11/11 02:19:38;;;;;;;0.93;0.93;;;;;;;;;;5066103;28;20187;-78
2022/11/11 02:22:07;;;;;;;0.90;0.90;;;;;;;;;;5073972;28;20244;-77
2022/11/11 02:24:34;;;;;;;0.90;0.90;;;;;;;;;;5075868;28;20800;-77
2022/11/11 02:27:01;;;;;;;0.80;0.80;;;;;;;;;;5075367;28;20186;-76
2022/11/11 02:29:28;;;;;;;1.00;1.00;;;;;;;;;;5062628;28;20207;-78
2022/11/11 02:31:54;;;;;;;0.80;0.80;;;;;;;;;;5055106;28;20207;-77
2022/11/11 02:34:20;;;;;;;0.80;0.80;;;;;;;;;;5062308;28;20178;-77
2022/11/11 02:36:46;;;;;;;0.80;0.80;;;;;;;;;;5069149;28;20186;-77
2022/11/11 02:39:12;;;;;;;0.80;0.80;;;;;;;;;;5068919;28;20171;-78
2022/11/11 02:41:56;;;;;;;0.80;0.80;;;;;;;;;;5059826;28;20611;-77
2022/11/11 02:44:23;;;;;;;0.90;0.90;;;;;;;;;;5069179;28;20183;-78
2022/11/11 02:46:49;;;;;;;0.80;0.80;;;;;;;;;;5078490;28;20201;-78
2022/11/11 02:49:15;;;;;;;0.80;0.80;;;;;;;;;;5066487;28;20187;-77
2022/11/11 02:51:41;;;;;;;0.90;0.90;;;;;;;;;;5062012;28;20290;-77
2022/11/11 02:54:07;;;;;;;0.83;0.83;;;;;;;;;;5077029;28;20198;-77
2022/11/11 02:59:20;;;;;;;1.30;1.20;;;;;;;;;;5072173;28;20178;-77
2022/11/11 03:01:46;;;;;;;1.00;1.00;;;;;;;;;;5079308;28;20227;-78
2022/11/11 03:04:12;;;;;;;1.00;1.00;;;;;;;;;;5079260;28;20761;-78
2022/11/11 03:06:38;;;;;;;1.83;1.73;;;;;;;;;;5078009;28;20689;-78
2022/11/11 03:09:04;;;;;;;1.23;1.17;;;;;;;;;;5074744;28;20189;-78
2022/11/11 03:11:30;;;;;;;0.90;0.90;;;;;;;;;;5098447;23;20265;-79
2022/11/11 03:13:57;;;;;;;1.60;1.50;;;;;;;;;;5085081;28;20511;-77
2022/11/11 03:19:08;;;;;;;1.30;1.20;;;;;;;;;;5075738;28;20248;-77
2022/11/11 03:21:34;;;;;;;1.47;1.37;;;;;;;;;;5084969;28;20206;-78
2022/11/11 03:24:00;;;;;;;1.80;1.70;;;;;;;;;;5085289;28;20712;-78
2022/11/11 03:26:26;;;;;;;1.70;1.60;;;;;;;;;;5076526;28;20186;-76
2022/11/11 03:28:51;;;;;;;0.90;0.90;;;;;;;;;;5072496;28;20178;-76
2022/11/11 03:31:17;;;;;;;1.07;1.07;;;;;;;;;;5071563;28;20217;-77
2022/11/11 03:33:43;;;;;;;0.97;0.97;;;;;;;;;;5072418;28;20171;-77
2022/11/11 03:36:09;;;;;;;1.40;1.30;;;;;;;;;;5072351;28;20178;-77
2022/11/11 03:38:35;;;;;;;1.60;1.50;;;;;;;;;;5071616;28;20166;-76
2022/11/11 03:41:01;;;;;;;1.50;1.40;;;;;;;;;;5071769;28;20630;-76
2022/11/11 03:43:28;;;;;;;1.10;1.10;;;;;;;;;;5072324;28;20697;-76
2022/11/11 03:45:58;;;;;;;1.37;1.27;;;;;;;;;;5071625;28;20174;-78
2022/11/11 03:48:25;;;;;;;1.00;1.00;;;;;;;;;;5071860;28;20257;-76
2022/11/11 03:50:51;;;;;;;1.30;1.20;;;;;;;;;;5071208;28;20284;-77
2022/11/11 03:53:18;;;;;;;1.50;1.40;;;;;;;;;;5071631;28;20170;-77
2022/11/11 03:55:44;;;;;;;0.90;0.90;;;;;;;;;;5072080;28;20182;-76
2022/11/11 03:58:11;;;;;;;0.90;0.90;;;;;;;;;;5071850;28;20178;-77
2022/11/11 04:00:37;;;;;;;0.90;0.90;;;;;;;;;;5071770;28;20289;-78
2022/11/11 04:11:24;;;;;;;0.90;0.90;;;;;;;;;;5071155;28;20642;-77
2022/11/11 04:16:36;;;;;;;0.80;0.80;;;;;;;;;;5057195;28;20244;-77
2022/11/11 04:21:46;;;;;;;0.93;0.93;;;;;;;;;;5071149;28;20209;-77
2022/11/11 04:27:02;;;;;;;1.00;1.00;;;;;;;;;;5072324;28;20260;-77
2022/11/11 04:29:28;;;;;;;0.90;0.90;;;;;;;;;;5071696;28;20189;-77
2022/11/11 04:34:43;;;;;;;0.90;0.90;;;;;;;;;;5059240;28;20178;-78
2022/11/11 04:37:10;;;;;;;0.90;0.90;;;;;;;;;;5072896;28;20884;-78
2022/11/11 04:42:21;;;;;;;1.10;1.10;;;;;;;;;;5072406;28;20206;-79
2022/11/11 04:47:31;;;;;;;1.10;1.10;;;;;;;;;;5071061;28;20236;-77
2022/11/11 04:49:57;;;;;;;1.20;1.10;;;;;;;;;;5070994;28;20777;-77
2022/11/11 04:52:26;;;;;;;1.40;1.30;;;;;;;;;;5070793;28;20224;-77
2022/11/11 04:57:41;;;;;;;1.70;1.60;;;;;;;;;;5070985;28;20248;-77
2022/11/11 05:00:08;;;;;;;1.27;1.17;;;;;;;;;;5070321;28;20176;-77
2022/11/11 05:05:19;;;;;;;1.50;1.40;;;;;;;;;;5071987;28;20582;-78
2022/11/11 05:10:29;;;;;;;1.30;1.20;;;;;;;;;;5072132;28;20229;-79
2022/11/11 05:21:19;;;;;;;1.20;1.20;;;;;;;;;;5073262;28;20194;-78
2022/11/11 05:21:22;;;;;;;1.70;1.60;;;;;;;;;;5071951;28;20220;-79
2022/11/11 05:26:33;;;;;;;1.00;1.00;;;;;;;;;;5071851;28;20192;-78
2022/11/11 05:28:59;;;;;;;0.90;0.90;;;;;;;;;;5068908;28;20190;-78
2022/11/11 05:31:25;;;;;;;0.90;0.90;;;;;;;;;;5065868;28;20275;-78
2022/11/11 05:33:51;;;;;;;1.00;1.00;;;;;;;;;;5074848;28;20520;-78
2022/11/11 05:36:17;;;;;;;1.00;1.00;;;;;;;;;;5074900;28;20189;-77
2022/11/11 05:38:43;;;;;;;1.30;1.20;;;;;;;;;;5074374;28;20202;-77
2022/11/11 05:41:09;;;;;;;1.40;1.30;;;;;;;;;;5073702;28;20194;-77
2022/11/11 05:43:35;;;;;;;1.37;1.27;;;;;;;;;;5074583;28;20239;-78
2022/11/11 05:46:01;;;;;;;1.40;1.30;;;;;;;;;;5072610;28;20660;-77
2022/11/11 05:48:27;;;;;;;1.10;1.10;;;;;;;;;;5072099;28;20698;-79
2022/11/11 05:50:53;;;;;;;1.27;1.17;;;;;;;;;;5074415;28;20215;-79
2022/11/11 05:53:22;;;;;;;1.30;1.20;;;;;;;;;;5077541;28;20337;-78
2022/11/11 05:55:49;;;;;;;1.40;1.30;;;;;;;;;;5076904;28;20198;-78
2022/11/11 05:58:16;;;;;;;0.87;0.87;;;;;;;;;;5076085;28;20257;-78
2022/11/11 06:00:43;;;;;;;1.27;1.20;;;;;;;;;;5076081;28;20198;-78
2022/11/11 06:03:09;;;;;;;1.60;1.50;;;;;;;;;;5076048;28;20178;-79
2022/11/11 06:05:38;;;;;;;1.30;1.20;;;;;;;;;;5076700;28;20183;-79
2022/11/11 06:08:04;;;;;;;1.20;1.20;;;;;;;;;;5076558;28;20202;-79
2022/11/11 06:10:30;;;;;;;1.37;1.27;;;;;;;;;;5074288;28;20279;-78
2022/11/11 06:13:08;;;;;;;1.10;1.10;;;;;;;;;;5064452;28;20609;-78
2022/11/11 06:15:35;;;;;;;1.10;1.10;;;;;;;;;;5061575;28;20213;-79
2022/11/11 06:18:02;;;;;;;1.40;1.30;;;;;;;;;;5075894;28;20175;-78
2022/11/11 06:20:28;;;;;;;1.30;1.20;;;;;;;;;;5073479;28;20649;-78
2022/11/11 06:22:57;;;;;;;1.23;1.23;;;;;;;;;;5066237;28;20214;-78
2022/11/11 06:28:09;;;;;;;1.10;1.10;;;;;;;;;;5073909;28;20173;-78
2022/11/11 06:30:35;;;;;;;1.70;1.60;;;;;;;;;;5075088;28;20297;-78
2022/11/11 06:33:01;;;;;;;1.00;1.00;;;;;;;;;;5072732;28;20186;-78
2022/11/11 06:35:27;;;;;;;1.00;1.00;;;;;;;;;;5071769;28;20275;-78
2022/11/11 06:37:53;;;;;;;1.07;1.07;;;;;;;;;;5072955;28;20182;-77
2022/11/11 06:40:19;;;;;;;1.67;1.57;;;;;;;;;;5072219;28;20189;-78
2022/11/11 06:42:45;;;;;;;1.30;1.20;;;;;;;;;;5066601;28;20586;-78
2022/11/11 06:45:11;;;;;;;1.20;1.10;;;;;;;;;;5070242;28;20208;-78
2022/11/11 06:47:37;;;;;;;1.20;1.10;;;;;;;;;;5074391;28;20265;-72
2022/11/11 06:50:03;;;;;;;1.13;1.13;;;;;;;;;;5071979;28;20209;-74
2022/11/11 06:52:29;;;;;;;1.60;1.50;;;;;;;;;;5072314;28;20225;-74
2022/11/11 06:54:55;;;;;;;1.40;1.30;;;;;;;;;;5065159;28;20620;-74
2022/11/11 06:57:24;;;;;;;1.00;1.00;;;;;;;;;;5054545;28;20628;-73
2022/11/11 06:59:50;;;;;;;1.07;1.07;;;;;;;;;;5052865;28;20605;-77
2022/11/11 07:02:16;;;;;;;1.13;1.10;;;;;;;;;;5053441;28;20241;-76
2022/11/11 07:04:42;;;;;;;1.53;1.43;;;;;;;;;;5052987;28;20225;-75
2022/11/11 07:07:07;;;;;;;1.30;1.20;;;;;;;;;;5052673;28;20171;-74
2022/11/11 07:09:33;;;;;;;0.80;0.80;;;;;;;;;;5053145;28;20772;-75
2022/11/11 07:12:00;;;;;;;1.10;1.10;;;;;;;;;;5052647;28;20266;-75
2022/11/11 07:14:26;;;;;;;0.88;0.88;;;;;;;;;;5051964;28;20412;-76
2022/11/11 07:16:52;;;;;;;1.10;1.10;;;;;;;;;;5052697;28;20649;-76
2022/11/11 07:19:18;;;;;;;1.60;1.50;;;;;;;;;;5053020;28;20183;-75
2022/11/11 07:21:44;;;;;;;1.23;1.17;;;;;;;;;;5057738;28;20191;-76
2022/11/11 07:24:10;;;;;;;1.13;1.13;;;;;;;;;;5072604;28;20175;-75
2022/11/11 07:26:36;;;;;;;1.30;1.20;;;;;;;;;;5072266;28;20179;-75
2022/11/11 07:29:02;;;;;;;1.40;1.30;;;;;;;;;;5070771;28;20228;-76
2022/11/11 07:31:28;;;;;;;1.30;1.20;;;;;;;;;;5071185;28;20214;-75
2022/11/11 07:33:54;;;;;;;1.30;1.20;;;;;;;;;;5071935;28;20205;-76
2022/11/11 07:36:20;;;;;;;1.10;1.10;;;;;;;;;;5071509;28;20209;-76
2022/11/11 07:38:46;;;;;;;1.10;1.10;;;;;;;;;;5069099;28;20182;-76
2022/11/11 07:41:12;;;;;;;1.40;1.30;;;;;;;;;;5071309;28;20255;-76
2022/11/11 07:43:38;;;;;;;0.93;0.93;;;;;;;;;;5071859;28;20170;-75
2022/11/11 07:46:04;;;;;;;1.30;1.20;;;;;;;;;;5071679;28;20219;-75
2022/11/11 07:48:30;;;;;;;1.00;1.00;;;;;;;;;;5072128;28;20557;-75
2022/11/11 07:50:56;;;;;;;0.80;0.80;;;;;;;;;;5070786;28;20225;-76
2022/11/11 07:53:22;;;;;;;0.90;0.90;;;;;;;;;;5072411;28;20387;-75
2022/11/11 07:55:48;;;;;;;0.67;0.67;;;;;;;;;;5071198;28;20657;-76
2022/11/11 07:58:15;;;;;;;0.90;0.90;;;;;;;;;;5071205;28;20253;-76
2022/11/11 08:00:40;;;;;;;0.73;0.73;;;;;;;;;;5071253;28;20197;-76
2022/11/11 08:03:06;;;;;;;0.80;0.80;;;14.30;1.00;;;;;;5071051;28;20269;-76
2022/11/11 08:05:32;;;;;;;0.80;0.80;;;;;;;;;;5071819;28;20247;-76
2022/11/11 08:08:05;;;;;;;0.60;0.60;;;;;;;;;;5071870;28;20186;-76
2022/11/11 08:10:31;;;;;;;0.80;0.80;;;5.70;99.90;;;;;;5071027;28;20213;-76
2022/11/11 08:15:41;;;;;;;0.80;0.80;;;;;;;;;;5071472;28;20193;-75
2022/11/11 08:18:07;;;;;;;0.77;0.77;;;;;;;;;;5071718;28;20186;-76
2022/11/11 08:20:34;;;;;;;0.70;0.70;;;;;;;;;;5070796;28;20679;-75
2022/11/11 08:23:02;;;;;;;0.70;0.70;;;;;;;;;;5071456;28;20697;-75
2022/11/11 08:25:29;;;;;;;0.80;0.80;;;;;;;;;;5071672;28;20186;-76
2022/11/11 08:27:58;;;;;;;0.90;0.90;;;;;;;;;;5071365;28;20182;-76
2022/11/11 08:30:24;;;;;;;0.80;0.80;;;;;;;;;;5070838;28;20217;-75
2022/11/11 08:33:00;;;;;;;0.83;0.83;;;;;;;;;;5071565;28;20182;-76
2022/11/11 08:35:26;;;;;;;0.80;0.80;;;;;;;;;;5071448;28;20178;-75
2022/11/11 08:37:52;;;;;;;0.60;0.60;;;;;;;;;;5071558;28;20174;-76
2022/11/11 08:40:18;;;;;;;0.70;0.70;;;;;;;;;;5070876;28;20183;-76
2022/11/11 08:42:44;;;;;;;0.60;0.60;;;;;;;;;;5071368;28;20177;-76
2022/11/11 08:45:10;;;;;;;0.70;0.70;;;;;;;;;;5071220;28;20259;-76
2022/11/11 08:47:36;;;;;;;0.70;0.70;;;5.80;99.90;;;;;;5071394;28;20210;-76
2022/11/11 08:50:03;;;;;;;0.70;0.70;;;8.00;1.00;;;;;;5070717;28;20206;-76
2022/11/11 08:52:30;;;;;;;0.70;0.70;;;8.50;1.00;;;;;;5071157;28;20309;-76
2022/11/11 08:54:55;;;;;;;0.80;0.80;;;9.00;1.00;;;;;;5071285;28;20202;-76
2022/11/11 08:57:21;;;;;;;0.70;0.70;;;9.20;1.00;;;;;;5071792;28;20606;-75
2022/11/11 08:59:46;;;;;;;0.67;0.67;;;9.20;99.90;;;;;;5071051;28;20186;-75
2022/11/11 09:02:12;;;;;;;0.60;0.60;;;9.40;99.90;;;;;;5073319;28;20608;-76
2022/11/11 09:04:39;;;;;;;0.67;0.67;;;9.70;99.90;;;;;;5075482;28;20216;-76
2022/11/11 09:07:06;;;;;;;0.63;0.63;;;10.10;1.00;;;;;;5075448;28;20642;-76
2022/11/11 09:09:32;;;;;;;0.60;0.60;;;10.30;1.00;;;;;;5074966;28;20557;-77
2022/11/11 09:11:58;;;;;;;0.50;0.50;;;10.80;99.90;;;;;;5116746;22;20308;-80
2022/11/11 09:14:23;;;;;;;0.60;0.60;;;11.40;99.90;;;;;;5101011;28;20162;-80
2022/11/11 09:16:49;;;;;;;0.60;0.60;;;12.10;1.00;;;;;;5101028;28;20181;-80
2022/11/11 09:19:15;;;;;;;0.40;0.40;;;13.00;99.90;;;;;;5100904;28;20182;-80
2022/11/11 09:21:40;;;;;;;0.50;0.50;;;14.20;54.90;;;;;;5099114;28;20217;-81
2022/11/11 09:24:06;;;;;;;0.50;0.50;;;15.60;1.00;;;;;;5100124;28;20257;-79
2022/11/11 09:26:31;;;;;;;0.50;0.50;;;16.80;1.00;;;;;;5099366;28;20243;-80
2022/11/11 09:28:57;;;;;;;0.50;0.50;;;17.30;1.00;;;;;;5096733;28;20650;-79
2022/11/11 09:31:22;;;;;;;0.30;0.30;;;17.40;1.00;;;;;;5094834;28;20213;-77
2022/11/11 09:33:49;;;;;;;0.40;0.40;;;17.20;1.00;;;;;;5097152;28;20178;-78
2022/11/11 09:36:15;;;;;;;0.40;0.40;;;;;;;;;;5099131;28;20541;-77
2022/11/11 09:38:41;;;;;;;0.40;0.40;;;;;;;;;;5096222;28;20642;-80
2022/11/11 09:41:12;;;;;;;0.40;0.40;;;;;;;;;;5095783;28;20223;-79
2022/11/11 09:43:44;;;;;;;0.30;0.30;;;;;;;;;;5097921;28;20660;-77
2022/11/11 09:46:23;;;;;;;0.30;0.30;;;;;;;;;;5096255;28;20184;-78
2022/11/11 09:49:15;;;;;;;0.40;0.40;;;;;;;;;;5096742;28;20178;-78
2022/11/11 09:51:50;;;;;;;0.30;0.30;;;;;;;;;;5095893;28;20271;-79
2022/11/11 09:54:24;;;;;;;0.37;0.37;;;;;;;;;;5097363;28;20544;-79
2022/11/11 09:56:50;;;;;;;0.30;0.30;;;;;;;;;;5096765;28;20185;-79
2022/11/11 09:59:18;;;;;;;0.30;0.30;;;;;;;;;;5095748;28;20222;-78
2022/11/11 10:01:46;;;;;;;0.30;0.30;;;;;;;;;;5095270;28;20193;-78
2022/11/11 10:04:31;;;;;;;0.30;0.30;;;;;;;;;;5096767;28;20252;-78
2022/11/11 10:07:00;;;;;;;0.30;0.30;;;;;;;;;;5099140;28;20178;-77
2022/11/11 10:09:41;;;;;;;0.40;0.40;;;;;;;;;;5096126;28;20177;-78
2022/11/11 10:12:10;;;;;;;0.30;0.30;;;;;;;;;;5096157;28;20222;-81
2022/11/11 10:14:37;;;;;;;0.40;0.40;;;;;;;;;;5095305;28;20178;-78
2022/11/11 10:17:14;;;;;;;0.40;0.40;;;;;;;;;;5095471;28;20185;-78
2022/11/11 10:20:00;;;;;;;0.33;0.33;;;;;;;;;;5094907;28;20185;-77
2022/11/11 10:22:36;;;;;;;0.40;0.40;;;;;;;;;;5094813;28;20278;-76
2022/11/11 10:25:05;;;;;;;0.30;0.30;;;;;;;;;;5094431;28;20216;-78
2022/11/11 10:27:32;;;;;;;0.40;0.40;;;;;;;;;;5095077;28;20181;-77
2022/11/11 10:29:58;;;;;;;0.40;0.40;;;;;;;;;;5094553;28;20206;-77
2022/11/11 10:32:25;;;;;;;0.40;0.40;;;;;;;;;;5095016;28;20201;-78
2022/11/11 10:34:51;;;;;;;0.40;0.40;;;;;;;;;;5095423;28;20206;-78
2022/11/11 10:37:19;;;;;;;0.40;0.40;;;;;;;;;;5095277;28;20189;-76
2022/11/11 10:39:53;;;;;;;0.30;0.30;;;;;;;;;;5094243;28;20518;-79
2022/11/11 10:42:19;;;;;;;0.40;0.40;;;;;;;;;;5095911;28;20267;-79
2022/11/11 10:44:45;;;;;;;0.30;0.30;;;;;;;;;;5095174;28;20174;-79
2022/11/11 10:47:14;;;;;;;0.30;0.30;;;;;;;;;;5095915;28;20701;-77
2022/11/11 10:49:44;;;;;;;0.40;0.40;;;;;;;;;;5094821;28;20669;-78
2022/11/11 10:52:20;;;;;;;0.40;0.40;;;16.60;1.00;;;;;;5095098;28;20583;-77
2022/11/11 10:54:45;;;;;;;0.40;0.40;;;20.90;1.00;;;;;;5095064;28;20197;-78
2022/11/11 10:57:35;;;;;;;0.50;0.50;;;20.80;1.00;;;;;;5095127;28;20543;-77
2022/11/11 11:00:14;;;;;;;0.40;0.40;;;20.70;1.00;;;;;;5093788;28;20186;-78
2022/11/11 11:02:58;;;;;;;0.43;0.43;;;20.30;1.00;;;;;;5094065;28;20208;-77
2022/11/11 11:05:36;;;;;;;0.40;0.40;;;19.80;1.00;;;;;;5094886;28;20600;-79
2022/11/11 11:08:10;;;;;;;0.30;0.30;;;19.40;1.00;;;;;;5095000;28;20230;-79
2022/11/11 11:11:09;;;;;;;0.40;0.40;;;19.50;1.00;;;;;;5093962;28;20274;-78
2022/11/11 11:13:48;;;;;;;0.30;0.30;;;19.60;1.00;;;;;;5089988;28;20194;-79
2022/11/11 11:16:28;;;;;;;0.30;0.30;;;19.60;1.00;;;;;;5093787;28;20669;-77
2022/11/11 11:19:19;;;;;;;0.30;0.30;;;18.90;1.00;;;;;;5093902;28;20166;-77
2022/11/11 11:21:56;;;;;;;0.30;0.30;;;18.70;1.00;;;;;;5093533;28;20558;-78
2022/11/11 11:24:31;;;;;;;0.30;0.30;;;18.30;1.00;;;;;;5093189;28;20728;-78
2022/11/11 11:26:59;;;;;;;0.33;0.33;;;17.60;1.00;;;;;;5093449;28;20192;-77
2022/11/11 11:29:36;;;;;;;0.40;0.40;;;17.50;1.00;;;;;;5093632;28;20181;-78
2022/11/11 11:32:15;;;;;;;0.30;0.30;;;17.20;1.00;;;;;;5094859;28;20382;-78
2022/11/11 11:34:46;;;;;;;0.43;0.43;;;16.90;1.00;;;;;;5098385;28;20873;-78
2022/11/11 11:37:12;;;;;;;0.47;0.47;;;16.90;1.00;;;;;;5096005;28;20642;-77
2022/11/11 11:39:39;;;;;;;0.40;0.40;;;16.90;1.00;;;;;;5093325;28;20174;-77
2022/11/11 11:42:06;;;;;;;0.50;0.50;;;16.70;1.00;;;;;;5094521;28;20258;-77
2022/11/11 11:44:37;;;;;;;0.30;0.30;;;16.50;1.00;;;;;;5095984;28;20186;-77
2022/11/11 11:47:17;;;;;;;0.33;0.33;;;16.60;1.00;;;;;;5097026;28;20688;-77
2022/11/11 11:50:24;;;;;;;0.30;0.30;;;17.10;1.00;;;;;;5096468;28;20174;-78
2022/11/11 11:53:10;;;;;;;0.30;0.30;;;17.60;1.00;;;;;;5054600;28;20186;-79
2022/11/11 11:55:43;;;;;;;0.30;0.30;;;18.10;1.00;;;;;;5095071;28;20180;-77
2022/11/11 11:58:32;;;;;;;0.30;0.30;;;18.00;1.00;;;;;;5094972;28;20181;-77
2022/11/11 12:01:00;;;;;;;0.30;0.30;;;18.00;1.00;;;;;;5094163;28;20186;-78
2022/11/11 12:03:45;;;;;;;0.30;0.30;;;18.10;1.00;;;;;;5094195;28;20169;-77
2022/11/11 12:06:26;;;;;;;0.40;0.40;;;18.40;1.00;;;;;;5093314;28;20209;-78
2022/11/11 12:09:12;;;;;;;0.30;0.30;;;18.30;1.00;;;;;;5092916;28;20177;-77
2022/11/11 12:12:06;;;;;;;0.30;0.30;;;18.50;1.00;;;;;;5092839;28;20217;-78
2022/11/11 12:14:41;;;;;;;0.30;0.30;;;18.60;1.00;;;;;;5094260;28;20473;-79
2022/11/11 12:17:35;;;;;;;0.30;0.30;;;18.70;1.00;;;;;;5092888;28;20188;-78
2022/11/11 12:20:15;;;;;;;0.30;0.30;;;18.60;1.00;;;;;;5093455;28;20189;-77
2022/11/11 12:23:05;;;;;;;0.40;0.40;;;18.80;1.00;;;;;;5093697;28;20371;-79
2022/11/11 12:25:49;;;;;;;0.30;0.30;;;18.80;1.00;;;;;;5093486;28;20181;-78
2022/11/11 12:28:35;;;;;;;0.30;0.30;;;19.00;1.00;;;;;;5093765;28;20199;-78
2022/11/11 12:31:21;;;;;;;0.40;0.40;;;19.40;1.00;;;;;;5092163;28;20584;-76
2022/11/11 12:34:40;;;;;;;0.33;0.33;;;19.30;1.00;;;;;;5092477;28;20178;-79
2022/11/11 12:37:12;;;;;;;0.40;0.40;;;18.90;1.00;;;;;;5009694;28;20180;-78
2022/11/11 12:40:02;;;;;;;0.40;0.40;;;18.00;1.00;;;;;;5078930;28;20181;-77
2022/11/11 12:42:43;;;;;;;0.40;0.40;;;17.70;1.00;;;;;;5092975;28;20205;-80
2022/11/11 12:45:17;;;;;;;0.40;0.40;;;17.60;1.00;;;;;;5093426;28;20527;-77
2022/11/11 12:48:27;;;;;;;0.30;0.30;;;17.60;1.00;;;;;;5092838;28;20169;-78
2022/11/11 12:51:12;;;;;;;0.47;0.47;;;17.70;1.00;;;;;;5092964;28;20214;-78
2022/11/11 12:54:05;;;;;;;0.40;0.40;;;17.90;1.00;;;;;;5093137;28;20215;-78
2022/11/11 12:57:01;;;;;;;0.30;0.30;;;17.90;1.00;;;;;;5092412;28;20189;-77
2022/11/11 13:00:01;;;;;;;0.40;0.40;;;17.70;1.00;;;;;;5092409;28;20166;-78
2022/11/11 13:02:48;;;;;;;0.50;0.50;;;17.60;1.00;;;;;;5092165;28;20662;-77
2022/11/11 13:05:17;;;;;;;0.40;0.40;;;17.30;1.00;;;;;;5092960;28;20630;-77
2022/11/11 13:08:02;;;;;;;0.40;0.40;;;17.00;1.00;;;;;;5092395;28;20181;-78
2022/11/11 13:10:46;;;;;;;0.30;0.30;;;16.80;1.00;;;;;;5091492;28;20201;-77
2022/11/11 13:13:35;;;;;;;0.50;0.50;;;16.80;1.00;;;;;;5091861;28;20260;-78
2022/11/11 13:16:01;;;;;;;0.30;0.30;;;16.60;1.00;;;;;;5092962;28;20542;-78
2022/11/11 13:18:48;;;;;;;0.40;0.40;;;16.30;1.00;;;;;;5092845;28;20661;-77
2022/11/11 13:21:23;;;;;;;0.40;0.40;;;16.30;1.00;;;;;;5092046;28;20268;-78
2022/11/11 13:23:49;;;;;;;0.40;0.40;;;16.30;1.00;;;;;;5092670;28;20182;-78
2022/11/11 13:26:42;;;;;;;0.30;0.30;;;16.30;1.00;;;;;;5093021;28;20200;-78
2022/11/11 13:29:43;;;;;;;0.40;0.40;;;16.50;1.00;;;;;;5097257;28;20285;-77
2022/11/11 13:32:13;;;;;;;0.43;0.43;;;16.60;1.00;;;;;;5095804;28;20235;-76
2022/11/11 13:34:40;;;;;;;0.40;0.40;;;16.60;1.00;;;;;;5092656;28;20174;-77
2022/11/11 13:37:09;;;;;;;0.40;0.40;;;16.70;1.00;;;;;;5092700;28;20549;-78
2022/11/11 13:39:46;;;;;;;0.30;0.30;;;16.80;1.00;;;;;;5091756;28;20197;-77
2022/11/11 13:42:21;;;;;;;0.40;0.40;;;16.90;1.00;;;;;;5092594;28;20208;-77
2022/11/11 13:44:46;;;;;;;0.40;0.40;;;17.10;1.00;;;;;;5092555;28;20176;-78
2022/11/11 13:47:26;;;;;;;0.30;0.30;;;17.20;1.00;;;;;;5093016;28;20169;-78
2022/11/11 13:50:00;;;;;;;0.40;0.40;;;17.30;1.00;;;;;;5095449;28;20174;-78
2022/11/11 13:52:33;;;;;;;0.40;0.40;;;17.40;1.00;;;;;;5097023;28;20204;-78
2022/11/11 13:55:02;;;;;;;0.50;0.50;;;17.40;1.00;;;;;;5096738;28;20239;-78
2022/11/11 13:57:31;;;;;;;0.40;0.40;;;17.50;1.00;;;;;;5096337;28;20227;-78
2022/11/11 14:00:22;;;;;;;0.47;0.47;;;17.50;1.00;;;;;;5096070;28;20181;-78
2022/11/11 14:03:07;;;;;;;0.50;0.50;;;17.60;1.00;;;;;;5096420;28;20181;-77
2022/11/11 14:05:33;;;;;;;0.30;0.30;;;17.60;1.00;;;;;;5096856;28;20511;-78
2022/11/11 14:07:59;;;;;;;0.40;0.40;;;17.50;1.00;;;;;;5097384;28;20203;-78
2022/11/11 14:10:24;;;;;;;0.30;0.30;;;17.40;1.00;;;;;;5096592;28;20213;-78
2022/11/11 14:13:16;;;;;;;0.40;0.40;;;17.30;1.00;;;;;;5097301;28;20228;-78
2022/11/11 14:15:44;;;;;;;0.50;0.50;;;17.10;1.00;;;;;;5096787;28;20549;-78
2022/11/11 14:18:21;;;;;;;0.37;0.37;;;16.70;1.00;;;;;;5096788;28;20759;-78
2022/11/11 14:20:50;;;;;;;0.40;0.40;;;16.60;1.00;;;;;;5096133;28;20263;-78
2022/11/11 14:23:32;;;;;;;0.60;0.60;;;16.50;1.00;;;;;;5078662;28;20181;-78
2022/11/11 14:26:20;;;;;;;0.40;0.40;;;16.60;1.00;;;;;;5096916;28;20199;-77
2022/11/11 14:28:46;;;;;;;0.40;0.40;;;16.60;1.00;;;;;;5096339;28;20188;-79
2022/11/11 14:31:11;;;;;;;0.40;0.40;;;16.70;1.00;;;;;;5096183;28;20220;-79
2022/11/11 14:33:46;;;;;;;0.40;0.40;;;16.60;1.00;;;;;;5096556;28;20177;-79
2022/11/11 14:36:33;;;;;;;0.50;0.50;;;16.50;1.00;;;;;;5096422;28;20177;-78
2022/11/11 14:39:18;;;;;;;0.40;0.40;;;16.40;1.00;;;;;;5096560;28;20291;-78
2022/11/11 14:41:50;;;;;;;0.40;0.40;;;16.40;1.00;;;;;;5098057;28;20537;-79
2022/11/11 14:44:33;;;;;;;0.50;0.50;;;16.20;1.00;;;;;;5099263;28;20522;-78
2022/11/11 14:47:04;;;;;;;0.40;0.40;;;16.30;1.00;;;;;;5096411;28;20174;-78
2022/11/11 14:49:52;;;;;;;0.50;0.50;;;15.80;1.00;;;;;;5096432;28;20176;-79
2022/11/11 14:52:41;;;;;;;0.60;0.60;;;15.60;1.00;;;;;;5096141;28;20217;-77
2022/11/11 14:55:30;;;;;;;0.40;0.40;;;15.40;1.00;;;;;;5096088;28;20170;-79
2022/11/11 14:57:59;;;;;;;0.43;0.43;;;15.10;1.00;;;;;;5095999;28;20185;-78
2022/11/11 15:00:28;;;;;;;0.40;0.40;;;14.90;99.90;;;;;;5094564;28;20177;-78
2022/11/11 15:03:06;;;;;;;0.60;0.60;;;14.80;99.90;;;;;;5096099;28;20208;-78
2022/11/11 15:05:54;;;;;;;0.30;0.30;;;14.60;99.90;;;;;;5096364;28;20173;-79
2022/11/11 15:08:30;;;;;;;0.47;0.47;;;14.50;99.90;;;;;;5096354;28;20181;-78
2022/11/11 15:11:33;;;;;;;0.50;0.50;;;14.30;1.00;;;;;;5095999;28;20273;-78
2022/11/11 15:14:07;;;;;;;0.50;0.50;;;14.20;1.00;;;;;;5096751;28;20181;-79
2022/11/11 15:17:00;;;;;;;0.53;0.53;;;14.00;1.00;;;;;;5096360;28;20181;-79
2022/11/11 15:19:46;;;;;;;0.50;0.50;;;13.90;99.90;;;;;;5095932;28;20174;-79
2022/11/11 15:22:35;;;;;;;0.50;0.50;;;13.70;1.00;;;;;;5096350;28;20212;-79
2022/11/11 15:25:09;;;;;;;0.40;0.40;;;13.50;1.00;;;;;;5096960;28;20173;-80
2022/11/11 15:28:12;;;;;;;0.60;0.60;;;13.30;99.90;;;;;;5096500;28;20170;-79
2022/11/11 15:30:56;;;;;;;0.60;0.60;;;13.20;1.00;;;;;;5094937;28;20811;-80
2022/11/11 15:33:40;;;;;;;0.50;0.50;;;13.00;42.00;;;;;;5096179;28;20174;-80
2022/11/11 15:36:15;;;;;;;0.57;0.57;;;12.90;99.90;;;;;;5096444;28;20177;-80
2022/11/11 15:38:41;;;;;;;0.60;0.60;;;12.80;99.90;;;;;;5096307;28;20180;-80